Time;durP1;ratioP1;P1;durP2;ratioP2;P2;SDS_P1;SDS_P2;PMS_P1;PMS_P2;Temp;Humidity;BMP_temperature;BMP_pressure;BME280_temperature;BME280_humidity;BME280_pressure;Samples;Min_cycle;Max_cycle;Signal;HPM_P1;HPM_P2
2023/02/01 00:00:53;;;;;;;0.43;0.43;;;;;;;2.53;89.83;96912.19;5004900;28;20051;-61
2023/02/01 00:03:20;;;;;;;0.55;0.55;;;;;;;2.59;89.22;96903.47;5003965;28;20576;-62
2023/02/01 00:05:58;;;;;;;0.95;0.70;;;;;;;2.37;85.98;96865.38;5003474;28;20048;-59
2023/02/01 00:08:24;;;;;;;0.40;0.40;;;;;;;2.49;87.98;96916.69;5003893;28;20062;-62
2023/02/01 00:11:08;;;;;;;0.30;0.30;;;;;;;2.14;88.70;96846.75;5005278;28;20058;-62
2023/02/01 00:13:38;;;;;;;8.80;1.50;;;;;;;2.32;87.32;96908.47;5005432;28;20104;-60
2023/02/01 00:16:05;;;;;;;0.40;0.40;;;;;;;2.37;87.81;96916.53;5004840;28;20459;-60
2023/02/01 00:18:32;;;;;;;4.95;1.15;;;;;;;2.00;92.09;96923.38;5004786;28;20517;-61
2023/02/01 00:20:59;;;;;;;0.30;0.30;;;;;;;2.05;93.39;96919.69;5003345;28;20571;-59
2023/02/01 00:23:26;;;;;;;0.40;0.40;;;;;;;2.11;93.68;96934.81;5004403;28;20149;-59
2023/02/01 00:25:52;;;;;;;0.40;0.40;;;;;;;2.12;93.54;96941.88;5003938;28;20432;-61
2023/02/01 00:28:19;;;;;;;1.75;1.02;;;;;;;1.67;96.58;96907.72;5005153;28;20070;-62
2023/02/01 00:30:46;;;;;;;0.40;0.40;;;;;;;1.93;96.82;96922.25;5005062;28;20081;-61
2023/02/01 00:33:12;;;;;;;0.38;0.38;;;;;;;1.96;96.59;96916.16;5003061;28;20049;-62
2023/02/01 00:35:39;;;;;;;0.40;0.40;;;;;;;1.02;96.52;96754.88;5004805;28;20123;-62
2023/02/01 00:38:06;;;;;;;0.30;0.30;;;;;;;2.06;96.52;96911.19;5004696;28;20406;-59
2023/02/01 00:40:32;;;;;;;1.33;1.33;;;;;;;1.91;95.75;96891.72;5004055;28;20046;-61
2023/02/01 00:42:59;;;;;;;0.40;0.40;;;;;;;1.95;95.77;96887.22;5002850;28;20134;-60
2023/02/01 00:45:25;;;;;;;0.30;0.30;;;;;;;2.14;95.45;96898.66;5004639;28;20535;-58
2023/02/01 00:47:52;;;;;;;0.30;0.30;;;;;;;2.17;95.18;96900.72;5002959;28;20054;-58
2023/02/01 00:50:19;;;;;;;0.40;0.40;;;;;;;1.80;94.32;96863.09;5004447;28;20127;-62
2023/02/01 00:52:46;;;;;;;0.40;0.40;;;;;;;2.08;94.70;96899.94;5004092;28;20056;-61
2023/02/01 00:55:12;;;;;;;0.77;0.77;;;;;;;2.06;95.04;96896.72;5004702;28;20057;-62
2023/02/01 00:57:39;;;;;;;0.40;0.40;;;;;;;2.02;95.33;96895.75;5003771;28;20085;-61
2023/02/01 01:00:06;;;;;;;0.30;0.30;;;;;;;2.00;95.17;96895.25;5004382;28;20065;-59
2023/02/01 01:02:33;;;;;;;0.30;0.30;;;;;;;1.92;95.38;96887.84;5004128;28;20149;-61
2023/02/01 01:04:59;;;;;;;3.25;3.15;;;;;;;1.90;95.91;96895.59;5004794;28;20104;-61
2023/02/01 01:07:27;;;;;;;0.40;0.40;;;;;;;1.95;94.65;96898.13;5004260;28;20065;-61
2023/02/01 01:09:54;;;;;;;0.90;0.90;;;;;;;1.46;94.88;96831.06;5004987;28;20054;-61
2023/02/01 01:12:20;;;;;;;16.40;15.55;;;;;;;1.84;95.79;96915.94;5003299;28;20057;-59
2023/02/01 01:14:47;;;;;;;0.43;0.43;;;;;;;1.78;95.93;96895.38;5004289;28;20081;-61
2023/02/01 01:17:13;;;;;;;25.85;16.10;;;;;;;1.57;95.51;96878.78;5003765;28;20041;-60
2023/02/01 01:19:40;;;;;;;1.95;0.98;;;;;;;1.72;95.55;96904.84;5005036;28;20050;-57
2023/02/01 01:22:07;;;;;;;0.85;0.85;;;;;;;1.79;94.53;96894.28;5004158;28;20054;-59
2023/02/01 01:24:33;;;;;;;1.23;0.68;;;;;;;1.58;96.56;96904.97;5004408;28;20528;-58
2023/02/01 01:27:00;;;;;;;0.40;0.40;;;;;;;1.72;96.33;96900.19;5002350;28;20516;-59
2023/02/01 01:29:27;;;;;;;0.40;0.40;;;;;;;1.77;96.69;96901.97;5003160;28;20060;-62
2023/02/01 01:31:53;;;;;;;0.30;0.30;;;;;;;1.79;96.29;96905.19;5003539;28;20133;-61
2023/02/01 01:34:20;;;;;;;0.30;0.30;;;;;;;1.50;90.18;96816.47;5005817;28;20065;-60
2023/02/01 01:36:47;;;;;;;0.40;0.40;;;;;;;2.14;86.47;96906.84;5007920;28;20438;-62
2023/02/01 01:39:13;;;;;;;0.30;0.30;;;;;;;2.26;85.84;96907.03;5006620;28;20046;-60
2023/02/01 01:41:40;;;;;;;0.40;0.40;;;;;;;2.28;84.96;96896.56;5006718;28;20085;-60
2023/02/01 01:44:45;;;;;;;0.32;0.32;;;;;;;2.32;84.83;96890.16;5007398;28;20038;-61
2023/02/01 01:47:14;;;;;;;0.40;0.40;;;;;;;2.09;84.64;96838.69;5005503;28;20064;-58
2023/02/01 01:49:42;;;;;;;0.40;0.40;;;;;;;2.43;82.06;96871.50;5006395;28;20057;-61
2023/02/01 01:52:09;;;;;;;0.40;0.40;;;;;;;2.59;82.35;96898.00;5007494;28;20131;-62
2023/02/01 01:54:40;;;;;;;0.50;0.50;;;;;;;-0.05;81.34;96469.53;5007275;28;20068;-58
2023/02/01 01:57:13;;;;;;;0.40;0.40;;;;;;;2.71;82.92;96891.91;5006753;28;20124;-58
2023/02/01 01:59:43;;;;;;;0.40;0.40;;;;;;;2.05;83.51;96813.16;5006530;28;20511;-59
2023/02/01 02:02:10;;;;;;;0.40;0.40;;;;;;;2.84;81.84;96907.31;5007924;28;20050;-61
2023/02/01 02:04:37;;;;;;;0.40;0.40;;;;;;;2.90;81.58;96906.03;5007649;28;20081;-59
2023/02/01 02:07:09;;;;;;;0.50;0.50;;;;;;;2.83;81.31;96909.25;5007571;28;20124;-59
2023/02/01 02:09:36;;;;;;;0.40;0.40;;;;;;;2.26;81.83;96806.72;5007522;28;20046;-61
2023/02/01 02:12:04;;;;;;;1.58;1.48;;;;;;;2.98;83.04;96905.22;5006021;28;20057;-62
2023/02/01 02:14:32;;;;;;;0.40;0.40;;;;;;;2.96;81.96;96918.41;5005775;28;20124;-62
2023/02/01 02:17:34;;;;;;;1.40;1.23;;;;;;;2.57;75.52;96861.19;5007251;28;20128;-58
2023/02/01 02:20:25;;;;;;;0.40;0.40;;;;;;;2.96;76.26;96907.47;5007281;28;20099;-58
2023/02/01 02:23:22;;;;;;;0.40;0.40;;;;;;;2.90;77.21;96897.81;5006047;28;20089;-60
2023/02/01 02:26:01;;;;;;;3.30;0.68;;;;;;;2.83;74.62;96903.78;5005723;28;20077;-59
2023/02/01 02:28:49;;;;;;;1.67;0.90;;;;;;;2.81;74.09;96897.81;5005662;28;20112;-61
2023/02/01 02:31:25;;;;;;;3.15;0.50;;;;;;;2.84;73.43;96899.13;5007266;28;20161;-57
2023/02/01 02:33:55;;;;;;;0.60;0.60;;;;;;;2.79;75.25;96899.28;5005534;28;20147;-60
2023/02/01 02:36:25;;;;;;;0.73;0.70;;;;;;;2.71;74.99;96889.16;5006823;28;20045;-61
2023/02/01 02:39:22;;;;;;;0.55;0.40;;;;;;;2.75;72.50;96895.59;5005519;28;20054;-58
2023/02/01 02:48:22;;;;;;;0.50;0.50;;;;;;;2.64;76.60;96873.25;5006698;28;20476;-58
2023/02/01 03:04:56;;;;;;;2.22;0.77;;;;;;;2.83;66.37;96892.03;5006639;28;20123;-58
2023/02/01 03:07:44;;;;;;;0.93;0.55;;;;;;;2.80;65.73;96895.41;5006458;28;20054;-58
2023/02/01 03:10:20;;;;;;;2.85;1.05;;;;;;;2.84;64.64;96894.47;5005937;28;20061;-61
2023/02/01 03:12:57;;;;;;;0.50;0.50;;;;;;;2.85;63.28;96901.53;5005012;28;20046;-61
2023/02/01 03:15:32;;;;;;;0.40;0.40;;;;;;;2.65;63.32;96888.53;5004556;28;20053;-61
2023/02/01 03:18:02;;;;;;;0.40;0.40;;;;;;;2.79;62.04;96904.75;5006056;28;20046;-60
2023/02/01 03:20:30;;;;;;;0.60;0.60;;;;;;;2.82;62.36;96901.38;5000132;28;20491;-58
2023/02/01 03:22:59;;;;;;;7.63;1.08;;;;;;;2.85;59.54;96895.25;4986697;28;20057;-59
2023/02/01 03:25:31;;;;;;;0.40;0.40;;;;;;;2.04;59.55;96787.00;4984767;28;20050;-60
2023/02/01 03:28:06;;;;;;;0.40;0.40;;;;;;;2.85;58.50;96906.19;4985127;28;20096;-62
2023/02/01 03:30:42;;;;;;;0.50;0.47;;;;;;;2.88;58.45;96900.06;4986112;28;20081;-58
2023/02/01 03:33:22;;;;;;;0.63;0.63;;;;;;;2.88;57.47;96902.81;4986187;28;20054;-58
2023/02/01 03:36:01;;;;;;;1.58;1.17;;;;;;;2.83;57.86;96900.22;4986203;28;20141;-59
2023/02/01 03:38:38;;;;;;;1.58;0.60;;;;;;;2.81;58.21;96910.72;4986292;28;20655;-60
2023/02/01 03:41:13;;;;;;;0.50;0.50;;;;;;;2.64;58.10;96897.84;4986268;28;20082;-58
2023/02/01 03:44:06;;;;;;;0.45;0.45;;;;;;;2.75;58.12;96914.75;4984863;28;20054;-61
2023/02/01 03:46:46;;;;;;;1.60;1.03;;;;;;;2.65;58.35;96912.34;4986421;28;20058;-62
2023/02/01 03:49:20;;;;;;;0.50;0.50;;;;;;;2.64;58.50;96913.47;4985082;28;20058;-58
2023/02/01 03:51:49;;;;;;;0.77;0.73;;;;;;;2.60;58.92;96920.69;4986496;28;20046;-59
2023/02/01 03:54:18;;;;;;;0.63;0.63;;;;;;;2.61;59.06;96916.81;4986254;28;20054;-57
2023/02/01 03:56:47;;;;;;;0.45;0.45;;;;;;;2.65;58.33;96920.53;4985011;28;20092;-57
2023/02/01 03:59:14;;;;;;;0.40;0.40;;;;;;;2.59;59.25;96908.94;4985325;28;20054;-61
2023/02/01 04:01:41;;;;;;;1.08;0.75;;;;;;;2.62;58.55;96918.44;4985805;28;20437;-58
2023/02/01 04:04:09;;;;;;;1.55;1.00;;;;;;;2.61;58.97;96919.56;4985604;28;20498;-61
2023/02/01 04:06:36;;;;;;;0.70;0.70;;;;;;;2.27;58.57;96878.56;4985809;28;20050;-62
2023/02/01 04:09:02;;;;;;;0.47;0.47;;;;;;;2.49;57.68;96909.28;4985542;28;20053;-57
2023/02/01 04:11:29;;;;;;;0.47;0.47;;;;;;;2.69;57.59;96930.50;4984439;28;20057;-58
2023/02/01 04:13:55;;;;;;;0.40;0.40;;;;;;;2.38;58.36;96896.25;4985596;28;20086;-61
2023/02/01 04:16:22;;;;;;;0.50;0.40;;;;;;;2.65;58.81;96945.16;4985229;28;20046;-57
2023/02/01 04:18:49;;;;;;;0.40;0.40;;;;;;;2.65;59.47;96945.16;4984091;28;20554;-60
2023/02/01 04:21:15;;;;;;;0.40;0.40;;;;;;;2.64;59.82;96949.00;4985541;28;20057;-59
2023/02/01 04:23:42;;;;;;;0.40;0.40;;;;;;;2.45;60.49;96927.44;4985618;28;20054;-60
2023/02/01 04:26:09;;;;;;;0.40;0.40;;;;;;;2.56;61.75;96947.09;4985156;28;20065;-61
2023/02/01 04:28:35;;;;;;;0.40;0.40;;;;;;;2.45;62.98;96952.03;4984278;28;20484;-61
2023/02/01 04:31:02;;;;;;;2.75;0.93;;;;;;;2.31;61.77;96923.28;4985315;28;20473;-60
2023/02/01 04:33:29;;;;;;;0.40;0.40;;;;;;;2.08;61.03;96903.47;4985154;28;20144;-62
2023/02/01 04:35:56;;;;;;;0.40;0.40;;;;;;;2.38;59.42;96962.66;4985145;28;20120;-61
2023/02/01 04:38:22;;;;;;;0.38;0.38;;;;;;;1.45;62.09;96822.06;4984177;28;20050;-58
2023/02/01 04:40:49;;;;;;;0.40;0.40;;;;;;;1.44;62.33;96838.75;4985109;28;20113;-61
2023/02/01 04:43:17;;;;;;;0.40;0.40;;;;;;;2.16;62.05;96961.97;4985288;28;20050;-62
2023/02/01 04:45:48;;;;;;;0.40;0.40;;;;;;;1.74;60.00;96903.38;4984983;28;20128;-61
2023/02/01 04:48:16;;;;;;;0.30;0.30;;;;;;;2.21;60.56;96961.81;4985402;28;20145;-58
2023/02/01 04:50:47;;;;;;;0.40;0.40;;;;;;;2.26;59.52;96961.69;4985102;28;20146;-58
2023/02/01 04:53:14;;;;;;;0.40;0.40;;;;;;;1.83;60.55;96900.69;4985143;28;20532;-60
2023/02/01 04:55:41;;;;;;;0.30;0.30;;;;;;;1.90;61.38;96909.22;4985734;28;20121;-61
2023/02/01 04:58:09;;;;;;;0.40;0.40;;;;;;;2.20;62.25;96976.59;4993901;28;20081;-60
2023/02/01 05:00:37;;;;;;;0.30;0.30;;;;;;;2.15;62.25;96974.81;5003883;28;20045;-58
2023/02/01 05:03:04;;;;;;;0.52;0.52;;;;;;;2.13;63.94;96976.28;5004461;28;20140;-60
2023/02/01 05:05:31;;;;;;;0.30;0.30;;;;;;;2.09;65.34;96964.34;5003852;28;20062;-60
2023/02/01 05:07:57;;;;;;;0.52;0.52;;;;;;;2.00;65.80;96960.81;5004720;28;20054;-60
2023/02/01 05:10:24;;;;;;;0.30;0.30;;;;;;;1.95;65.52;96967.22;5003742;28;20433;-58
2023/02/01 05:15:36;;;;;;;0.43;0.43;;;;;;;1.64;64.33;96924.72;5004155;28;20124;-61
2023/02/01 05:18:03;;;;;;;0.30;0.30;;;;;;;1.98;65.20;96973.97;5004296;28;20163;-60
2023/02/01 05:20:30;;;;;;;0.40;0.40;;;;;;;1.89;66.22;96976.69;5002761;28;20058;-57
2023/02/01 05:22:56;;;;;;;0.30;0.30;;;;;;;1.80;67.62;96989.50;5004271;28;20481;-62
2023/02/01 05:25:23;;;;;;;4.65;4.22;;;;;;;1.80;65.11;96988.69;5004172;28;20050;-58
2023/02/01 05:27:49;;;;;;;6.90;1.70;;;;;;;1.40;61.94;96915.00;5004091;28;20101;-61
2023/02/01 05:30:16;;;;;;;0.30;0.30;;;;;;;2.05;60.97;96958.75;5002751;28;20406;-60
2023/02/01 05:32:43;;;;;;;0.40;0.40;;;;;;;2.01;62.13;96957.75;5004372;28;20100;-57
2023/02/01 05:35:10;;;;;;;0.30;0.30;;;;;;;1.86;65.07;96954.66;5002472;28;20564;-59
2023/02/01 05:37:36;;;;;;;1.45;1.38;;;;;;;1.90;64.24;96977.50;5004060;28;20054;-61
2023/02/01 05:40:03;;;;;;;0.40;0.40;;;;;;;1.92;64.36;96969.78;5003911;28;20565;-61
2023/02/01 05:42:30;;;;;;;30.17;11.90;;;;;;;1.97;64.11;96983.28;5002726;28;20132;-60
2023/02/01 05:44:56;;;;;;;0.50;0.50;;;;;;;2.07;64.47;96974.81;5004135;28;20046;-60
2023/02/01 05:47:23;;;;;;;0.45;0.45;;;;;;;2.09;64.93;96978.00;5002751;28;20046;-57
2023/02/01 05:49:50;;;;;;;0.90;0.82;;;;;;;2.15;64.94;96968.56;5003781;28;20058;-61
2023/02/01 05:52:19;;;;;;;1.67;1.67;;;;;;;2.15;64.18;96974.81;5003847;28;20049;-57
2023/02/01 05:54:49;;;;;;;0.40;0.40;;;;;;;1.53;64.63;96919.53;5004282;28;20046;-57
2023/02/01 05:57:16;;;;;;;2.05;1.95;;;;;;;2.15;65.19;96958.44;5002242;28;20066;-57
2023/02/01 05:59:44;;;;;;;0.50;0.50;;;;;;;2.15;66.49;96980.28;5004120;28;20132;-62
2023/02/01 06:02:12;;;;;;;0.40;0.40;;;;;;;2.32;66.51;96990.47;5003867;28;20131;-62
2023/02/01 06:04:38;;;;;;;2.55;1.50;;;;;;;2.36;63.92;96980.47;5004127;28;20382;-62
2023/02/01 06:07:07;;;;;;;1.20;1.02;;;;;;;2.51;60.52;96980.03;5003650;28;20741;-62
2023/02/01 06:09:35;;;;;;;0.30;0.30;;;;;;;2.34;60.41;96939.03;5004000;28;20152;-58
2023/02/01 06:12:02;;;;;;;0.40;0.40;;;;;;;2.60;62.79;96969.91;5003399;28;20421;-58
2023/02/01 06:14:29;;;;;;;0.40;0.40;;;;;;;2.89;61.40;96983.75;5003959;28;20127;-62
2023/02/01 06:16:56;;;;;;;0.40;0.40;;;;;;;2.94;59.34;96991.81;4987283;28;20438;-62
2023/02/01 06:19:23;;;;;;;0.75;0.75;;;;;;;3.00;62.19;96995.97;4984111;28;20050;-58
2023/02/01 06:21:50;;;;;;;0.60;0.60;;;;;;;2.94;63.67;97008.22;4985932;28;20105;-62
2023/02/01 06:24:16;;;;;;;0.93;0.93;;;;;;;2.91;65.21;96997.88;4987977;28;20104;-60
2023/02/01 06:26:43;;;;;;;6.47;3.33;;;;;;;2.85;65.78;97012.84;4987766;28;20069;-62
2023/02/01 06:29:10;;;;;;;1.67;1.40;;;;;;;2.87;65.88;97013.34;4987909;28;20055;-59
2023/02/01 06:31:37;;;;;;;7.93;7.15;;;;;;;2.71;67.08;97015.75;4987538;28;20081;-58
2023/02/01 06:34:04;;;;;;;7.07;2.05;;;;;;;2.78;67.89;97018.03;4986243;28;20054;-63
2023/02/01 06:36:30;;;;;;;0.40;0.40;;;;;;;2.24;67.61;96933.88;4986720;28;20144;-61
2023/02/01 06:38:59;;;;;;;0.40;0.40;;;;;;;2.65;68.82;97008.03;4987163;28;20058;-62
2023/02/01 06:41:26;;;;;;;10.35;4.93;;;;;;;2.69;68.83;97012.53;4986882;28;20050;-60
2023/02/01 06:43:55;;;;;;;0.43;0.43;;;;;;;2.76;68.68;97017.53;4985702;28;20486;-62
2023/02/01 06:46:21;;;;;;;2.15;2.05;;;;;;;2.91;68.44;97008.81;4986505;28;20127;-58
2023/02/01 06:48:50;;;;;;;0.47;0.47;;;;;;;2.96;68.59;97044.25;4998063;28;20565;-61
2023/02/01 06:51:24;;;;;;;0.40;0.40;;;;;;;2.96;69.71;97008.69;5000549;28;20051;-58
2023/02/01 06:53:51;;;;;;;2.58;1.50;;;;;;;2.94;68.02;97013.69;4998748;28;20080;-59
2023/02/01 06:56:18;;;;;;;0.40;0.40;;;;;;;2.90;68.11;97012.69;5004497;28;20065;-61
2023/02/01 06:58:46;;;;;;;0.40;0.40;;;;;;;1.56;66.95;96787.13;5005195;28;20068;-58
2023/02/01 07:01:13;;;;;;;0.60;0.60;;;;;;;3.18;67.00;97024.91;5005537;28;20046;-60
2023/02/01 07:03:40;;;;;;;0.50;0.50;;;;;;;0.73;66.93;96616.44;5004742;28;20058;-60
2023/02/01 07:06:08;;;;;;;1.20;1.20;;;;;;;3.24;67.62;97029.09;4991452;28;20129;-59
2023/02/01 07:08:37;;;;;;;0.52;0.52;;;;;;;3.27;67.15;97031.22;4986362;28;20108;-57
2023/02/01 07:11:06;;;;;;;0.50;0.50;;;;;;;3.49;67.53;97024.72;4986349;28;20161;-59
2023/02/01 07:13:34;;;;;;;0.50;0.50;;;;;;;3.40;67.56;96983.66;4999316;28;20168;-59
2023/02/01 07:16:03;;;;;;;5.00;1.75;;;;;;;3.72;66.16;97028.84;5006048;28;20119;-59
2023/02/01 07:18:30;;;;;;;7.00;6.80;;;;;;;3.83;65.97;97041.88;5004482;28;20092;-59
2023/02/01 07:20:58;;;;;;;0.50;0.50;;;;;;;3.95;64.99;97028.28;5005475;28;20092;-58
2023/02/01 07:23:25;;;;;;;0.50;0.50;;;;;;;4.03;64.75;97013.75;4997768;28;20053;-57
2023/02/01 07:25:57;;;;;;;0.60;0.60;;;;;;;4.41;64.12;97047.41;5003621;28;20107;-59
2023/02/01 07:28:25;;;;;;;0.98;0.98;;;;;;;4.61;61.48;97057.66;5000803;28;20521;-60
2023/02/01 07:30:52;;;;;;;0.50;0.50;;;;;;;4.62;60.79;97050.22;5004480;28;20057;-57
2023/02/01 07:33:24;;;;;;;0.50;0.50;;;;;;;4.83;60.32;97050.25;4992471;28;20049;-58
2023/02/01 07:35:53;;;;;;;0.50;0.50;;;;;;;4.87;61.00;97021.00;4984270;28;20050;-58
2023/02/01 07:38:21;;;;;;;1.02;1.02;;;;;;;5.12;60.43;97039.22;4996748;28;20121;-60
2023/02/01 07:40:48;;;;;;;1.27;1.17;;;;;;;5.20;59.02;97047.38;5003306;28;20060;-60
2023/02/01 07:43:15;;;;;;;0.90;0.90;;;;;;;5.32;58.66;97066.66;5005228;28;20112;-60
2023/02/01 07:45:41;;;;;;;0.50;0.50;;;;;;;5.24;58.15;97026.34;5005421;28;20054;-57
2023/02/01 07:48:08;;;;;;;0.60;0.60;;;;;;;5.52;56.81;97056.78;5003973;28;20539;-58
2023/02/01 07:50:34;;;;;;;0.50;0.50;;;;;;;3.93;57.58;96797.69;5001990;28;20050;-59
2023/02/01 07:53:01;;;;;;;0.50;0.50;;;;;;;5.57;57.97;97062.06;5003652;28;20049;-59
2023/02/01 07:55:28;;;;;;;0.50;0.50;;;;;;;5.47;57.12;97035.81;5005817;28;20583;-58
2023/02/01 07:57:58;;;;;;;0.80;0.80;;;;;;;5.34;57.21;97036.91;5005035;28;20054;-58
2023/02/01 08:03:11;;;;;;;0.60;0.60;;;;;;;5.17;59.00;97063.72;5004739;28;20056;-58
2023/02/01 08:05:37;;;;;;;0.60;0.60;;;;;;;4.93;59.59;97008.69;5004717;28;20056;-58
2023/02/01 08:08:05;;;;;;;0.50;0.50;;;;;;;5.27;59.29;97049.56;5004390;28;20054;-59
2023/02/01 08:10:32;;;;;;;0.50;0.50;;;;;;;4.81;59.39;96994.88;5004555;28;20046;-58
2023/02/01 08:12:59;;;;;;;0.50;0.50;;;;;;;5.31;61.78;97059.56;5002647;28;20046;-58
2023/02/01 08:15:27;;;;;;;0.60;0.60;;;;;;;5.26;62.32;97061.72;4993731;28;20058;-59
2023/02/01 08:17:54;;;;;;;17.60;11.23;;;;;;;5.03;61.85;97032.97;4988315;28;20062;-59
2023/02/01 08:20:28;;;;;;;0.50;0.50;;;;;;;5.25;61.83;97068.34;4985234;28;20552;-59
2023/02/01 08:22:55;;;;;;;0.60;0.60;;;;;;;5.06;63.07;97043.31;4991293;28;20054;-61
2023/02/01 08:25:22;;;;;;;1.63;1.27;;;;;;;5.34;64.67;97069.88;5003786;28;20077;-60
2023/02/01 08:27:49;;;;;;;0.70;0.70;;;;;;;4.99;65.18;97030.13;4995292;28;20042;-60
2023/02/01 08:30:16;;;;;;;0.50;0.50;;;;;;;5.23;66.36;97074.16;5014858;28;20508;-60
2023/02/01 08:32:42;;;;;;;0.50;0.50;;;;;;;4.76;69.19;97004.13;5005855;28;20475;-61
2023/02/01 08:35:09;;;;;;;0.50;0.50;;;;;;;5.17;68.55;97047.25;4999590;28;20082;-60
2023/02/01 08:37:36;;;;;;;0.60;0.60;;;;;;;5.26;69.58;97080.94;5004395;28;20053;-57
2023/02/01 08:40:04;;;;;;;0.50;0.50;;;;;;;5.17;69.10;97069.22;5003206;28;20061;-61
2023/02/01 08:45:21;;;;;;;1.20;1.20;;;;;;;4.20;72.51;97045.75;4998143;28;20054;-60
2023/02/01 08:47:48;;;;;;;0.73;0.73;;;;;;;3.78;71.49;96946.16;4992539;28;20049;-58
2023/02/01 08:50:15;;;;;;;0.50;0.50;;;;;;;4.41;72.10;97074.84;5004136;28;20058;-63
2023/02/01 08:52:42;;;;;;;0.50;0.50;;;;;;;4.71;73.35;97083.09;4992195;28;20050;-59
2023/02/01 08:55:10;;;;;;;0.50;0.50;;;;;;;4.76;74.95;97074.69;4989300;28;20146;-59
2023/02/01 08:57:36;;;;;;;0.50;0.50;;;;;;;4.76;75.60;97085.66;5001860;28;20061;-56
2023/02/01 09:00:05;;;;;;;0.50;0.50;;;;;;;3.93;75.65;96980.44;5025035;28;20564;-59
2023/02/01 09:02:32;;;;;;;0.60;0.60;;;;;;;4.60;77.89;97077.16;5001455;28;20041;-56
2023/02/01 09:04:59;;;;;;;0.50;0.50;;;;;;;2.40;78.02;96776.50;5007242;28;20631;-60
2023/02/01 09:07:26;;;;;;;0.50;0.50;;;;;;;4.47;78.90;97073.53;5003186;28;20337;-61
2023/02/01 09:09:54;;;;;;;0.50;0.50;;;;;;;4.49;79.67;97075.94;5004405;28;20054;-60
2023/02/01 09:12:21;;;;;;;0.50;0.50;;;;;;;4.04;80.07;96998.94;5001848;28;20084;-63
2023/02/01 09:14:47;;;;;;;0.60;0.60;;;;;;;3.94;81.78;97058.75;5003475;28;20209;-63
2023/02/01 09:17:15;;;;;;;0.88;0.88;;;;;;;4.50;80.83;97053.66;5002863;28;20517;-61
2023/02/01 09:19:41;;;;;;;0.50;0.50;;;;;;;3.98;81.50;96912.53;4999036;28;20042;-61
2023/02/01 09:22:08;;;;;;;0.50;0.50;;;;;;;4.11;80.56;96944.38;4998687;28;20128;-61
2023/02/01 09:24:35;;;;;;;0.60;0.60;;;;;;;3.23;82.28;96896.13;4999591;28;20047;-61
2023/02/01 09:27:01;;;;;;;0.50;0.50;;;;;;;4.36;85.12;97033.91;4988854;28;20081;-61
2023/02/01 09:29:28;;;;;;;0.63;0.63;;;;;;;4.59;84.77;97021.53;4996643;28;20053;-60
2023/02/01 09:31:55;;;;;;;4.35;3.90;;;;;;;4.60;83.41;97012.13;4995182;28;20065;-59
2023/02/01 09:34:29;;;;;;;0.60;0.60;;;;;;;4.77;82.08;97037.84;4999952;28;20623;-60
2023/02/01 09:36:56;;;;;;;0.88;0.73;;;;;;;4.78;81.94;97034.78;4997594;28;20527;-58
2023/02/01 09:39:23;;;;;;;0.50;0.50;;;;;;;4.85;82.52;97034.25;4985910;28;20062;-57
2023/02/01 09:41:52;;;;;;;0.70;0.70;;;;;;;4.77;80.94;97030.44;4992517;28;20540;-66
2023/02/01 09:44:25;;;;;;;0.60;0.60;;;;;;;4.98;81.58;97027.72;4983015;28;20050;-61
2023/02/01 09:47:01;;;;;;;0.60;0.60;;;;;;;4.97;80.75;97004.94;5002899;28;20045;-61
2023/02/01 09:49:37;;;;;;;0.60;0.60;;;;;;;4.58;79.18;97025.38;4987162;28;20054;-61
2023/02/01 09:52:07;;;;;;;0.50;0.50;;;;;;;4.55;81.18;97031.53;4988969;28;20054;-57
2023/02/01 09:54:50;;;;;;;0.50;0.50;;;;;;;4.69;80.31;97021.13;5003350;28;20089;-59
2023/02/01 09:57:35;;;;;;;0.53;0.53;;;;;;;4.89;79.92;97018.72;5004165;28;20061;-57
2023/02/01 10:00:15;;;;;;;0.50;0.50;;;;;;;5.00;79.18;97008.94;4988682;28;20050;-59
2023/02/01 10:02:42;;;;;;;0.60;0.60;;;;;;;5.33;79.31;97094.91;5005202;28;20050;-56
2023/02/01 10:05:16;;;;;;;0.60;0.60;;;;;;;5.23;77.89;96944.31;4997081;28;20050;-57
2023/02/01 10:08:14;;;;;;;0.60;0.60;;;;;;;2.03;76.22;96436.59;4997569;28;20077;-57
2023/02/01 10:10:48;;;;;;;0.57;0.57;;;;;;;5.49;76.25;96977.78;5001641;28;20057;-56
2023/02/01 10:13:33;;;;;;;;;;;;;;;5.61;76.65;96986.09;5001690;28;20082;-57
2023/02/01 10:16:10;;;;;;;0.50;0.50;;;;;;;5.55;77.15;96976.44;5015427;28;19940;-60
2023/02/01 10:18:52;;;;;;;0.57;0.57;;;;;;;5.39;76.80;96917.81;5007144;28;20078;-57
2023/02/01 10:21:39;;;;;;;0.60;0.60;;;;;;;5.84;74.67;96973.56;4992632;28;20085;-59
2023/02/01 10:24:56;;;;;;;0.63;0.63;;;;;;;4.98;76.54;96964.59;5003925;28;20058;-59
2023/02/01 10:27:33;;;;;;;0.57;0.57;;;;;;;5.39;74.72;96975.50;5008455;28;20167;-61
2023/02/01 10:30:09;;;;;;;1.30;1.30;;;;;;;5.57;74.75;96957.69;4985180;28;20053;-57
2023/02/01 10:32:36;;;;;;;0.50;0.50;;;;;;;3.92;75.34;96661.03;5013289;28;20136;-61
2023/02/01 10:35:12;;;;;;;0.60;0.60;;;;;;;5.82;74.08;96942.84;4996765;28;20108;-58
2023/02/01 10:37:41;;;;;;;0.50;0.50;;;;;;;5.84;72.65;96941.38;4994604;28;20074;-59
2023/02/01 10:40:24;;;;;;;0.50;0.50;;;;;;;5.98;73.32;96941.03;4999395;28;20061;-59
2023/02/01 10:43:02;;;;;;;0.50;0.50;;;;;;;6.09;73.61;96926.50;5005463;28;20058;-60
2023/02/01 10:45:32;;;;;;;0.60;0.60;;;;;;;6.22;73.04;96946.56;5005761;28;20057;-57
2023/02/01 10:48:02;;;;;;;0.60;0.60;;;;;;;6.09;72.72;96901.75;5005404;28;20141;-58
2023/02/01 10:50:49;;;;;;;0.95;0.95;;;;;;;6.12;72.19;96922.25;5001742;28;20046;-58
2023/02/01 10:53:29;;;;;;;3.08;2.85;;;;;;;5.21;70.52;96817.56;5005346;28;20073;-61
2023/02/01 10:55:55;;;;;;;1.40;1.40;;;;;;;6.00;69.54;96923.09;4996201;28;20133;-60
2023/02/01 10:58:29;;;;;;;6.28;5.97;;;;;;;5.97;70.20;96933.94;5002133;28;20074;-60
2023/02/01 11:01:07;;;;;;;0.60;0.60;;;;;;;6.11;70.51;96917.91;5005142;28;20053;-60
2023/02/01 11:03:37;;;;;;;5.07;4.70;;;;;;;5.86;70.79;96910.81;5006004;28;20053;-59
2023/02/01 11:06:19;;;;;;;1.17;1.17;;;;;;;5.93;69.91;96911.03;5004175;28;20095;-60
2023/02/01 11:08:49;;;;;;;6.80;2.60;;;;;;;5.22;72.13;96888.59;5003819;28;20058;-58
2023/02/01 11:11:16;;;;;;;0.70;0.70;;;;;;;5.36;73.17;96907.53;5005969;28;20116;-61
2023/02/01 11:13:56;;;;;;;0.50;0.50;;;;;;;5.77;71.76;96896.38;5004659;28;20046;-60
2023/02/01 11:16:32;;;;;;;6.60;5.38;;;;;;;5.54;70.62;96845.72;4988466;28;20066;-59
2023/02/01 11:18:59;;;;;;;0.80;0.80;;;;;;;5.97;70.45;96889.97;5000400;28;20054;-59
2023/02/01 11:21:26;;;;;;;0.57;0.57;;;;;;;5.68;68.09;96865.41;5005145;28;20089;-59
2023/02/01 11:23:54;;;;;;;0.60;0.60;;;;;;;6.00;68.02;96895.59;5004700;28;20097;-62
2023/02/01 11:26:24;;;;;;;0.63;0.60;;;;;;;6.24;68.09;96900.25;5005392;28;20050;-59
2023/02/01 11:28:57;;;;;;;0.70;0.70;;;;;;;6.33;68.90;96878.91;5005679;28;20497;-60
2023/02/01 11:31:26;;;;;;;0.60;0.60;;;;;;;6.45;68.44;96867.09;5004354;28;20081;-61
2023/02/01 11:34:17;;;;;;;0.60;0.60;;;;;;;6.55;65.09;96861.91;4992720;28;20057;-61
2023/02/01 11:36:49;;;;;;;3.90;3.60;;;;;;;5.59;67.69;96864.75;5004525;28;20212;-59
2023/02/01 11:39:25;;;;;;;0.60;0.60;;;;;;;3.73;68.43;96516.34;5004833;28;20111;-61
2023/02/01 11:42:13;;;;;;;0.98;0.90;;;;;;;6.24;68.33;96872.75;5003054;28;20042;-62
2023/02/01 11:44:43;;;;;;;3.70;1.27;;;;;;;6.04;68.38;96851.69;5005444;28;20057;-60
2023/02/01 11:47:21;;;;;;;2.65;2.55;;;;;;;6.33;67.38;96865.16;5005177;28;20046;-61
2023/02/01 11:49:49;;;;;;;4.57;2.00;;;;;;;5.90;68.25;96862.25;5003608;28;20112;-58
2023/02/01 11:52:48;;;;;;;0.70;0.70;;;;;;;5.62;72.49;96872.28;4996676;28;20108;-62
2023/02/01 11:55:33;;;;;;;1.17;1.17;;;;;;;5.75;71.85;96868.41;4996266;28;20101;-58
2023/02/01 11:58:02;;;;;;;0.60;0.60;;;;;;;5.52;72.88;96867.25;5006249;28;20574;-62
2023/02/01 12:00:59;;;;;;;2.67;0.77;;;;;;;5.85;71.64;96855.03;5006509;28;20065;-60
2023/02/01 12:03:48;;;;;;;1.90;0.80;;;;;;;5.41;70.66;96805.66;5001529;28;20057;-59
2023/02/01 12:06:22;;;;;;;0.50;0.50;;;;;;;5.89;72.18;96852.41;4988873;28;20145;-60
2023/02/01 12:09:10;;;;;;;3.60;1.58;;;;;;;6.07;70.84;96851.00;5004854;28;20061;-57
2023/02/01 12:12:06;;;;;;;0.60;0.60;;;;;;;6.10;71.36;96845.59;5004522;28;20521;-60
2023/02/01 12:14:48;;;;;;;0.60;0.60;;;;;;;6.46;70.24;96850.25;5003455;28;20525;-58
2023/02/01 12:17:47;;;;;;;0.60;0.60;;;;;;;6.73;68.14;96852.22;5002853;28;20053;-60
2023/02/01 12:20:20;;;;;;;0.90;0.90;;;;;;;6.95;67.99;96854.41;4998097;28;20065;-59
2023/02/01 12:22:56;;;;;;;;;;;;;;;6.99;67.54;96847.03;5004517;28;20065;-60
2023/02/01 12:25:35;;;;;;;0.70;0.70;;;;;;;7.05;68.48;96842.88;5003266;28;20099;-58
2023/02/01 12:28:20;;;;;;;2.10;1.63;;;;;;;6.28;69.60;96843.41;4991142;28;20510;-61